sensor_id;sensor_type;location;lat;lon;timestamp;temperature;humidity
40660;DHT22;26753;45.544;9.232;2022-10-13T00:01:58;17.80;99.90
40660;DHT22;26753;45.544;9.232;2022-10-13T00:04:25;17.90;99.90
40660;DHT22;26753;45.544;9.232;2022-10-13T00:06:51;17.80;99.90
40660;DHT22;26753;45.544;9.232;2022-10-13T00:09:17;17.90;99.90
40660;DHT22;26753;45.544;9.232;2022-10-13T00:11:42;17.90;99.90
40660;DHT22;26753;45.544;9.232;2022-10-13T00:14:08;17.80;99.90
40660;DHT22;26753;45.544;9.232;2022-10-13T00:16:34;17.70;99.90
40660;DHT22;26753;45.544;9.232;2022-10-13T00:18:59;17.70;99.90
40660;DHT22;26753;45.544;9.232;2022-10-13T00:21:27;17.70;99.90
40660;DHT22;26753;45.544;9.232;2022-10-13T00:23:53;17.80;99.90
40660;DHT22;26753;45.544;9.232;2022-10-13T00:26:21;17.90;99.90
40660;DHT22;26753;45.544;9.232;2022-10-13T00:28:48;17.90;99.90
40660;DHT22;26753;45.544;9.232;2022-10-13T00:31:26;18.00;99.90
40660;DHT22;26753;45.544;9.232;2022-10-13T00:33:52;18.00;99.90
40660;DHT22;26753;45.544;9.232;2022-10-13T00:36:20;18.00;99.90
40660;DHT22;26753;45.544;9.232;2022-10-13T00:38:46;18.10;99.90
40660;DHT22;26753;45.544;9.232;2022-10-13T00:41:12;18.10;99.90
40660;DHT22;26753;45.544;9.232;2022-10-13T00:44:00;18.10;99.90
40660;DHT22;26753;45.544;9.232;2022-10-13T00:46:30;18.10;99.90
40660;DHT22;26753;45.544;9.232;2022-10-13T00:49:07;18.10;99.90
40660;DHT22;26753;45.544;9.232;2022-10-13T00:51:38;18.10;99.90
40660;DHT22;26753;45.544;9.232;2022-10-13T00:54:06;18.20;99.90
40660;DHT22;26753;45.544;9.232;2022-10-13T00:56:36;18.10;99.90
40660;DHT22;26753;45.544;9.232;2022-10-13T00:59:08;18.10;99.90
40660;DHT22;26753;45.544;9.232;2022-10-13T01:01:35;18.10;99.90
40660;DHT22;26753;45.544;9.232;2022-10-13T01:04:02;18.10;99.90
40660;DHT22;26753;45.544;9.232;2022-10-13T01:06:28;18.00;99.90
40660;DHT22;26753;45.544;9.232;2022-10-13T01:08:55;18.00;99.90
40660;DHT22;26753;45.544;9.232;2022-10-13T01:11:31;18.00;99.90
40660;DHT22;26753;45.544;9.232;2022-10-13T01:14:27;17.90;99.90
40660;DHT22;26753;45.544;9.232;2022-10-13T01:17:03;17.90;99.90
40660;DHT22;26753;45.544;9.232;2022-10-13T01:30:37;17.70;99.90
40660;DHT22;26753;45.544;9.232;2022-10-13T01:35:55;17.70;99.90
40660;DHT22;26753;45.544;9.232;2022-10-13T01:43:35;17.50;99.90
40660;DHT22;26753;45.544;9.232;2022-10-13T01:46:14;17.60;99.90
40660;DHT22;26753;45.544;9.232;2022-10-13T01:48:43;17.60;99.90
40660;DHT22;26753;45.544;9.232;2022-10-13T01:51:13;17.60;99.90
40660;DHT22;26753;45.544;9.232;2022-10-13T01:53:41;17.60;99.90
40660;DHT22;26753;45.544;9.232;2022-10-13T01:56:08;17.60;99.90
40660;DHT22;26753;45.544;9.232;2022-10-13T01:58:35;17.60;99.90
40660;DHT22;26753;45.544;9.232;2022-10-13T02:04:16;17.80;99.90
40660;DHT22;26753;45.544;9.232;2022-10-13T02:12:07;17.60;99.90
40660;DHT22;26753;45.544;9.232;2022-10-13T02:14:40;17.50;99.90
40660;DHT22;26753;45.544;9.232;2022-10-13T02:17:07;17.60;99.90
40660;DHT22;26753;45.544;9.232;2022-10-13T02:19:35;17.40;99.90
40660;DHT22;26753;45.544;9.232;2022-10-13T02:22:03;17.40;99.90
40660;DHT22;26753;45.544;9.232;2022-10-13T02:24:29;17.40;99.90
40660;DHT22;26753;45.544;9.232;2022-10-13T02:26:55;17.40;99.90
40660;DHT22;26753;45.544;9.232;2022-10-13T02:29:24;17.40;99.90
40660;DHT22;26753;45.544;9.232;2022-10-13T02:31:50;17.40;99.90
40660;DHT22;26753;45.544;9.232;2022-10-13T02:34:19;17.50;99.90
40660;DHT22;26753;45.544;9.232;2022-10-13T02:36:45;17.60;99.90
40660;DHT22;26753;45.544;9.232;2022-10-13T02:39:11;17.60;99.90
40660;DHT22;26753;45.544;9.232;2022-10-13T02:41:37;17.60;99.90
40660;DHT22;26753;45.544;9.232;2022-10-13T02:44:03;17.60;99.90
40660;DHT22;26753;45.544;9.232;2022-10-13T02:46:29;17.50;99.90
40660;DHT22;26753;45.544;9.232;2022-10-13T02:48:55;17.50;99.90
40660;DHT22;26753;45.544;9.232;2022-10-13T02:51:21;17.50;99.90
40660;DHT22;26753;45.544;9.232;2022-10-13T02:53:47;17.50;99.90
40660;DHT22;26753;45.544;9.232;2022-10-13T02:56:13;17.40;99.90
40660;DHT22;26753;45.544;9.232;2022-10-13T02:58:41;17.50;99.90
40660;DHT22;26753;45.544;9.232;2022-10-13T03:01:14;17.40;99.90
40660;DHT22;26753;45.544;9.232;2022-10-13T03:03:43;17.50;99.90
40660;DHT22;26753;45.544;9.232;2022-10-13T03:06:12;17.40;99.90
40660;DHT22;26753;45.544;9.232;2022-10-13T03:08:38;17.30;99.90
40660;DHT22;26753;45.544;9.232;2022-10-13T03:11:09;17.30;99.90
40660;DHT22;26753;45.544;9.232;2022-10-13T03:13:36;17.30;99.90
40660;DHT22;26753;45.544;9.232;2022-10-13T03:16:07;17.20;99.90
40660;DHT22;26753;45.544;9.232;2022-10-13T03:18:36;17.20;99.90
40660;DHT22;26753;45.544;9.232;2022-10-13T03:21:03;17.20;99.90
40660;DHT22;26753;45.544;9.232;2022-10-13T03:23:32;17.20;99.90
40660;DHT22;26753;45.544;9.232;2022-10-13T03:26:14;17.20;99.90
40660;DHT22;26753;45.544;9.232;2022-10-13T03:28:47;17.20;99.90
40660;DHT22;26753;45.544;9.232;2022-10-13T03:31:24;17.20;99.90
40660;DHT22;26753;45.544;9.232;2022-10-13T03:33:54;17.20;99.90
40660;DHT22;26753;45.544;9.232;2022-10-13T03:36:22;17.10;99.90
40660;DHT22;26753;45.544;9.232;2022-10-13T03:38:47;17.10;99.90
40660;DHT22;26753;45.544;9.232;2022-10-13T03:41:16;17.10;99.90
40660;DHT22;26753;45.544;9.232;2022-10-13T03:43:43;17.10;99.90
40660;DHT22;26753;45.544;9.232;2022-10-13T03:46:14;17.00;99.90
40660;DHT22;26753;45.544;9.232;2022-10-13T03:48:41;17.00;99.90
40660;DHT22;26753;45.544;9.232;2022-10-13T03:51:15;17.00;99.90
40660;DHT22;26753;45.544;9.232;2022-10-13T03:53:41;17.00;99.90
40660;DHT22;26753;45.544;9.232;2022-10-13T03:56:18;17.00;99.90
40660;DHT22;26753;45.544;9.232;2022-10-13T03:59:00;17.00;99.90
40660;DHT22;26753;45.544;9.232;2022-10-13T04:01:27;16.90;99.90
40660;DHT22;26753;45.544;9.232;2022-10-13T04:03:54;16.90;99.90
40660;DHT22;26753;45.544;9.232;2022-10-13T04:06:21;16.90;99.90
40660;DHT22;26753;45.544;9.232;2022-10-13T04:08:48;16.80;99.90
40660;DHT22;26753;45.544;9.232;2022-10-13T04:11:15;16.80;99.90
40660;DHT22;26753;45.544;9.232;2022-10-13T04:13:41;16.70;99.90
40660;DHT22;26753;45.544;9.232;2022-10-13T04:16:24;16.70;99.90
40660;DHT22;26753;45.544;9.232;2022-10-13T04:18:52;16.70;99.90
40660;DHT22;26753;45.544;9.232;2022-10-13T04:21:24;16.70;99.90
40660;DHT22;26753;45.544;9.232;2022-10-13T04:24:03;16.70;99.90
40660;DHT22;26753;45.544;9.232;2022-10-13T04:26:32;16.70;99.90
40660;DHT22;26753;45.544;9.232;2022-10-13T04:28:59;16.70;99.90
40660;DHT22;26753;45.544;9.232;2022-10-13T04:31:27;16.80;99.90
40660;DHT22;26753;45.544;9.232;2022-10-13T04:33:53;16.80;99.90
40660;DHT22;26753;45.544;9.232;2022-10-13T04:36:19;16.70;99.90
40660;DHT22;26753;45.544;9.232;2022-10-13T04:38:46;16.80;99.90
40660;DHT22;26753;45.544;9.232;2022-10-13T04:41:13;16.80;99.90
40660;DHT22;26753;45.544;9.232;2022-10-13T04:43:41;16.80;99.90
40660;DHT22;26753;45.544;9.232;2022-10-13T04:46:11;16.80;99.90
40660;DHT22;26753;45.544;9.232;2022-10-13T04:48:37;16.80;99.90
40660;DHT22;26753;45.544;9.232;2022-10-13T04:51:11;16.80;99.90
40660;DHT22;26753;45.544;9.232;2022-10-13T04:53:38;16.70;99.90
40660;DHT22;26753;45.544;9.232;2022-10-13T04:56:14;16.80;99.90
40660;DHT22;26753;45.544;9.232;2022-10-13T04:58:52;16.80;99.90
40660;DHT22;26753;45.544;9.232;2022-10-13T05:01:20;16.90;99.90
40660;DHT22;26753;45.544;9.232;2022-10-13T05:03:49;16.90;99.90
40660;DHT22;26753;45.544;9.232;2022-10-13T05:06:21;16.90;99.90
40660;DHT22;26753;45.544;9.232;2022-10-13T05:08:47;16.80;99.90
40660;DHT22;26753;45.544;9.232;2022-10-13T05:11:14;16.80;99.90
40660;DHT22;26753;45.544;9.232;2022-10-13T05:13:40;16.80;99.90
40660;DHT22;26753;45.544;9.232;2022-10-13T05:16:08;16.80;99.90
40660;DHT22;26753;45.544;9.232;2022-10-13T05:18:34;16.80;99.90
40660;DHT22;26753;45.544;9.232;2022-10-13T05:21:08;16.80;99.90
40660;DHT22;26753;45.544;9.232;2022-10-13T05:23:34;16.70;99.90
40660;DHT22;26753;45.544;9.232;2022-10-13T05:26:05;16.70;99.90
40660;DHT22;26753;45.544;9.232;2022-10-13T05:28:31;16.70;99.90
40660;DHT22;26753;45.544;9.232;2022-10-13T05:31:26;16.70;99.90
40660;DHT22;26753;45.544;9.232;2022-10-13T05:34:11;16.60;99.90
40660;DHT22;26753;45.544;9.232;2022-10-13T05:36:37;16.60;99.90
40660;DHT22;26753;45.544;9.232;2022-10-13T05:39:05;16.60;99.90
40660;DHT22;26753;45.544;9.232;2022-10-13T05:41:32;16.60;99.90
40660;DHT22;26753;45.544;9.232;2022-10-13T05:44:01;16.70;99.90
40660;DHT22;26753;45.544;9.232;2022-10-13T05:46:27;16.80;99.90
40660;DHT22;26753;45.544;9.232;2022-10-13T05:48:56;17.40;99.90
40660;DHT22;26753;45.544;9.232;2022-10-13T05:51:29;16.80;99.90
40660;DHT22;26753;45.544;9.232;2022-10-13T05:56:42;16.90;99.90
40660;DHT22;26753;45.544;9.232;2022-10-13T05:59:12;17.20;99.90
40660;DHT22;26753;45.544;9.232;2022-10-13T06:01:41;17.00;99.90
40660;DHT22;26753;45.544;9.232;2022-10-13T06:04:12;17.10;99.90
40660;DHT22;26753;45.544;9.232;2022-10-13T06:06:39;17.10;99.90
40660;DHT22;26753;45.544;9.232;2022-10-13T06:09:05;17.10;99.90
40660;DHT22;26753;45.544;9.232;2022-10-13T06:11:31;17.20;99.90
40660;DHT22;26753;45.544;9.232;2022-10-13T06:13:56;17.30;99.90
40660;DHT22;26753;45.544;9.232;2022-10-13T06:16:22;17.40;99.90
40660;DHT22;26753;45.544;9.232;2022-10-13T06:18:48;17.50;99.90
40660;DHT22;26753;45.544;9.232;2022-10-13T06:21:14;17.50;99.90
40660;DHT22;26753;45.544;9.232;2022-10-13T06:23:39;17.50;99.90
40660;DHT22;26753;45.544;9.232;2022-10-13T06:26:06;17.60;99.90
40660;DHT22;26753;45.544;9.232;2022-10-13T06:28:33;17.50;99.90
40660;DHT22;26753;45.544;9.232;2022-10-13T06:30:59;17.50;99.90
40660;DHT22;26753;45.544;9.232;2022-10-13T06:33:25;17.50;99.90
40660;DHT22;26753;45.544;9.232;2022-10-13T06:35:51;17.50;99.90
40660;DHT22;26753;45.544;9.232;2022-10-13T06:38:17;17.50;99.90
40660;DHT22;26753;45.544;9.232;2022-10-13T06:40:43;17.60;99.90
40660;DHT22;26753;45.544;9.232;2022-10-13T06:43:09;17.60;99.90
40660;DHT22;26753;45.544;9.232;2022-10-13T06:45:35;17.50;99.90
40660;DHT22;26753;45.544;9.232;2022-10-13T06:48:01;17.60;99.90
40660;DHT22;26753;45.544;9.232;2022-10-13T06:50:27;17.50;99.90
40660;DHT22;26753;45.544;9.232;2022-10-13T06:52:54;17.50;99.90
40660;DHT22;26753;45.544;9.232;2022-10-13T06:55:32;17.60;99.90
40660;DHT22;26753;45.544;9.232;2022-10-13T06:57:58;17.60;99.90
40660;DHT22;26753;45.544;9.232;2022-10-13T07:00:23;17.60;99.90
40660;DHT22;26753;45.544;9.232;2022-10-13T07:02:53;17.70;99.90
40660;DHT22;26753;45.544;9.232;2022-10-13T07:05:19;17.80;99.90
40660;DHT22;26753;45.544;9.232;2022-10-13T07:07:45;17.80;99.90
40660;DHT22;26753;45.544;9.232;2022-10-13T07:10:13;17.90;99.90
40660;DHT22;26753;45.544;9.232;2022-10-13T07:12:39;17.90;99.90
40660;DHT22;26753;45.544;9.232;2022-10-13T07:15:05;18.00;99.90
40660;DHT22;26753;45.544;9.232;2022-10-13T07:17:31;18.00;99.90
40660;DHT22;26753;45.544;9.232;2022-10-13T07:19:57;18.00;99.90
40660;DHT22;26753;45.544;9.232;2022-10-13T07:22:23;18.10;99.90
40660;DHT22;26753;45.544;9.232;2022-10-13T07:24:49;18.20;99.90
40660;DHT22;26753;45.544;9.232;2022-10-13T07:27:14;18.30;99.90
40660;DHT22;26753;45.544;9.232;2022-10-13T07:29:40;18.40;99.90
40660;DHT22;26753;45.544;9.232;2022-10-13T07:32:08;18.50;99.90
40660;DHT22;26753;45.544;9.232;2022-10-13T07:34:34;18.70;99.90
40660;DHT22;26753;45.544;9.232;2022-10-13T07:37:00;18.70;99.90
40660;DHT22;26753;45.544;9.232;2022-10-13T07:39:28;18.80;99.90
40660;DHT22;26753;45.544;9.232;2022-10-13T07:41:54;19.00;99.90
40660;DHT22;26753;45.544;9.232;2022-10-13T07:44:19;19.10;99.90
40660;DHT22;26753;45.544;9.232;2022-10-13T07:46:45;19.30;99.90
40660;DHT22;26753;45.544;9.232;2022-10-13T07:49:11;19.40;99.90
40660;DHT22;26753;45.544;9.232;2022-10-13T07:51:36;19.60;99.90
40660;DHT22;26753;45.544;9.232;2022-10-13T07:54:02;19.80;99.90
40660;DHT22;26753;45.544;9.232;2022-10-13T07:56:28;19.80;99.90
40660;DHT22;26753;45.544;9.232;2022-10-13T07:58:56;20.00;99.90
40660;DHT22;26753;45.544;9.232;2022-10-13T08:01:22;20.20;99.90
40660;DHT22;26753;45.544;9.232;2022-10-13T08:03:48;20.40;99.90
40660;DHT22;26753;45.544;9.232;2022-10-13T08:06:14;20.50;99.90
40660;DHT22;26753;45.544;9.232;2022-10-13T08:08:39;20.70;99.90
40660;DHT22;26753;45.544;9.232;2022-10-13T08:11:07;20.90;99.90
40660;DHT22;26753;45.544;9.232;2022-10-13T08:13:50;21.00;99.90
40660;DHT22;26753;45.544;9.232;2022-10-13T08:16:17;21.20;99.90
40660;DHT22;26753;45.544;9.232;2022-10-13T08:18:43;21.20;99.90
40660;DHT22;26753;45.544;9.232;2022-10-13T08:21:12;21.20;99.90
40660;DHT22;26753;45.544;9.232;2022-10-13T08:23:39;21.20;99.90
40660;DHT22;26753;45.544;9.232;2022-10-13T08:26:13;21.30;99.90
40660;DHT22;26753;45.544;9.232;2022-10-13T08:28:39;21.40;99.90
40660;DHT22;26753;45.544;9.232;2022-10-13T08:31:05;21.40;99.90
40660;DHT22;26753;45.544;9.232;2022-10-13T08:33:34;21.60;99.90
40660;DHT22;26753;45.544;9.232;2022-10-13T08:36:00;21.80;99.90
40660;DHT22;26753;45.544;9.232;2022-10-13T08:38:40;22.00;99.90
40660;DHT22;26753;45.544;9.232;2022-10-13T08:44:48;22.40;99.90
40660;DHT22;26753;45.544;9.232;2022-10-13T08:50:32;22.50;99.90
40660;DHT22;26753;45.544;9.232;2022-10-13T08:53:26;22.60;99.90
40660;DHT22;26753;45.544;9.232;2022-10-13T08:59:16;23.00;99.90
40660;DHT22;26753;45.544;9.232;2022-10-13T09:01:48;22.90;99.90
40660;DHT22;26753;45.544;9.232;2022-10-13T09:04:41;22.90;99.90
40660;DHT22;26753;45.544;9.232;2022-10-13T09:07:16;22.80;99.90
40660;DHT22;26753;45.544;9.232;2022-10-13T09:09:54;22.60;99.90
40660;DHT22;26753;45.544;9.232;2022-10-13T09:12:23;22.40;99.90
40660;DHT22;26753;45.544;9.232;2022-10-13T09:15:02;22.30;99.90
40660;DHT22;26753;45.544;9.232;2022-10-13T09:17:33;22.30;99.90
40660;DHT22;26753;45.544;9.232;2022-10-13T09:29:48;23.40;99.90
40660;DHT22;26753;45.544;9.232;2022-10-13T09:32:21;23.70;99.90
40660;DHT22;26753;45.544;9.232;2022-10-13T09:34:52;23.80;99.90
40660;DHT22;26753;45.544;9.232;2022-10-13T09:37:24;23.80;99.90
40660;DHT22;26753;45.544;9.232;2022-10-13T09:46:30;23.90;99.90
40660;DHT22;26753;45.544;9.232;2022-10-13T09:51:50;23.90;99.90
40660;DHT22;26753;45.544;9.232;2022-10-13T09:57:56;24.10;99.90
40660;DHT22;26753;45.544;9.232;2022-10-13T10:00:48;24.20;99.90
40660;DHT22;26753;45.544;9.232;2022-10-13T10:07:18;24.50;99.90
40660;DHT22;26753;45.544;9.232;2022-10-13T10:10:21;24.80;99.90
40660;DHT22;26753;45.544;9.232;2022-10-13T10:13:23;24.60;99.90
40660;DHT22;26753;45.544;9.232;2022-10-13T10:16:10;24.40;99.90
40660;DHT22;26753;45.544;9.232;2022-10-13T10:37:48;25.70;99.90
40660;DHT22;26753;45.544;9.232;2022-10-13T10:40:27;25.90;99.90
40660;DHT22;26753;45.544;9.232;2022-10-13T10:43:37;25.80;99.90
40660;DHT22;26753;45.544;9.232;2022-10-13T10:46:27;26.00;99.90
40660;DHT22;26753;45.544;9.232;2022-10-13T10:51:56;26.60;99.90
40660;DHT22;26753;45.544;9.232;2022-10-13T11:04:45;26.30;99.90
40660;DHT22;26753;45.544;9.232;2022-10-13T11:15:54;25.20;99.90
40660;DHT22;26753;45.544;9.232;2022-10-13T11:19:02;25.20;99.90
40660;DHT22;26753;45.544;9.232;2022-10-13T11:29:54;25.30;99.90
40660;DHT22;26753;45.544;9.232;2022-10-13T11:32:46;25.70;99.90
40660;DHT22;26753;45.544;9.232;2022-10-13T11:35:43;25.90;99.90
40660;DHT22;26753;45.544;9.232;2022-10-13T11:38:27;26.10;99.90
40660;DHT22;26753;45.544;9.232;2022-10-13T11:41:18;26.20;99.90
40660;DHT22;26753;45.544;9.232;2022-10-13T11:46:34;26.20;99.90
40660;DHT22;26753;45.544;9.232;2022-10-13T11:56:03;26.10;99.90
40660;DHT22;26753;45.544;9.232;2022-10-13T12:00:34;26.80;99.90
40660;DHT22;26753;45.544;9.232;2022-10-13T12:02:59;27.50;99.90
40660;DHT22;26753;45.544;9.232;2022-10-13T12:05:27;27.60;99.90
40660;DHT22;26753;45.544;9.232;2022-10-13T12:07:55;27.90;99.90
40660;DHT22;26753;45.544;9.232;2022-10-13T12:10:31;28.20;99.90
40660;DHT22;26753;45.544;9.232;2022-10-13T12:12:57;30.00;99.60
40660;DHT22;26753;45.544;9.232;2022-10-13T12:15:35;31.50;97.50
40660;DHT22;26753;45.544;9.232;2022-10-13T12:18:17;31.50;95.70
40660;DHT22;26753;45.544;9.232;2022-10-13T12:20:53;32.10;95.20
40660;DHT22;26753;45.544;9.232;2022-10-13T12:23:20;31.80;93.70
40660;DHT22;26753;45.544;9.232;2022-10-13T12:25:48;30.60;94.10
40660;DHT22;26753;45.544;9.232;2022-10-13T12:28:21;30.10;94.70
40660;DHT22;26753;45.544;9.232;2022-10-13T12:30:57;29.30;95.30
40660;DHT22;26753;45.544;9.232;2022-10-13T12:35:52;27.80;97.00
40660;DHT22;26753;45.544;9.232;2022-10-13T12:38:20;27.40;97.60
40660;DHT22;26753;45.544;9.232;2022-10-13T12:41:16;27.20;98.00
40660;DHT22;26753;45.544;9.232;2022-10-13T12:43:44;26.80;98.30
40660;DHT22;26753;45.544;9.232;2022-10-13T12:46:10;26.60;98.70
40660;DHT22;26753;45.544;9.232;2022-10-13T12:48:36;26.90;98.90
40660;DHT22;26753;45.544;9.232;2022-10-13T12:51:25;27.50;98.50
40660;DHT22;26753;45.544;9.232;2022-10-13T12:53:55;28.20;97.70
40660;DHT22;26753;45.544;9.232;2022-10-13T12:56:26;28.10;97.80
40660;DHT22;26753;45.544;9.232;2022-10-13T12:58:58;27.60;97.50
40660;DHT22;26753;45.544;9.232;2022-10-13T13:04:14;26.70;98.40
40660;DHT22;26753;45.544;9.232;2022-10-13T13:09:20;26.00;99.10
40660;DHT22;26753;45.544;9.232;2022-10-13T13:11:47;25.70;99.40
40660;DHT22;26753;45.544;9.232;2022-10-13T13:17:05;25.30;99.90
40660;DHT22;26753;45.544;9.232;2022-10-13T13:19:32;25.20;99.90
40660;DHT22;26753;45.544;9.232;2022-10-13T13:21:59;25.00;99.90
40660;DHT22;26753;45.544;9.232;2022-10-13T13:24:24;24.90;99.90
40660;DHT22;26753;45.544;9.232;2022-10-13T13:26:50;24.70;99.90
40660;DHT22;26753;45.544;9.232;2022-10-13T13:29:16;24.60;99.90
40660;DHT22;26753;45.544;9.232;2022-10-13T13:31:50;24.50;99.90
40660;DHT22;26753;45.544;9.232;2022-10-13T13:34:16;24.50;99.90
40660;DHT22;26753;45.544;9.232;2022-10-13T13:36:41;24.50;99.90
40660;DHT22;26753;45.544;9.232;2022-10-13T13:39:14;24.50;99.90
40660;DHT22;26753;45.544;9.232;2022-10-13T13:41:43;24.50;99.90
40660;DHT22;26753;45.544;9.232;2022-10-13T13:44:09;24.50;99.90
40660;DHT22;26753;45.544;9.232;2022-10-13T13:46:34;24.50;99.90
40660;DHT22;26753;45.544;9.232;2022-10-13T13:49:03;24.60;99.90
40660;DHT22;26753;45.544;9.232;2022-10-13T13:51:32;24.50;99.90
40660;DHT22;26753;45.544;9.232;2022-10-13T13:54:01;24.50;99.90
40660;DHT22;26753;45.544;9.232;2022-10-13T13:56:27;24.50;99.90
40660;DHT22;26753;45.544;9.232;2022-10-13T13:58:54;24.40;99.90
40660;DHT22;26753;45.544;9.232;2022-10-13T14:01:20;24.30;99.90
40660;DHT22;26753;45.544;9.232;2022-10-13T14:03:50;24.30;99.90
40660;DHT22;26753;45.544;9.232;2022-10-13T14:06:17;24.30;99.90
40660;DHT22;26753;45.544;9.232;2022-10-13T14:08:44;24.20;99.90
40660;DHT22;26753;45.544;9.232;2022-10-13T14:11:10;24.30;99.90
40660;DHT22;26753;45.544;9.232;2022-10-13T14:13:36;24.40;99.90
40660;DHT22;26753;45.544;9.232;2022-10-13T14:16:02;24.40;99.90
40660;DHT22;26753;45.544;9.232;2022-10-13T14:18:29;24.40;99.90
40660;DHT22;26753;45.544;9.232;2022-10-13T14:20:55;24.30;99.90
40660;DHT22;26753;45.544;9.232;2022-10-13T14:23:21;24.30;99.90
40660;DHT22;26753;45.544;9.232;2022-10-13T14:25:48;24.30;99.90
40660;DHT22;26753;45.544;9.232;2022-10-13T14:28:14;24.30;99.90
40660;DHT22;26753;45.544;9.232;2022-10-13T14:30:40;24.10;99.90
40660;DHT22;26753;45.544;9.232;2022-10-13T14:33:07;24.20;99.90
40660;DHT22;26753;45.544;9.232;2022-10-13T14:35:35;24.20;99.90
40660;DHT22;26753;45.544;9.232;2022-10-13T14:38:01;24.10;99.90
40660;DHT22;26753;45.544;9.232;2022-10-13T14:40:27;24.30;99.90
40660;DHT22;26753;45.544;9.232;2022-10-13T14:42:55;24.30;99.90
40660;DHT22;26753;45.544;9.232;2022-10-13T14:45:21;24.50;99.90
40660;DHT22;26753;45.544;9.232;2022-10-13T14:47:46;25.50;99.90
40660;DHT22;26753;45.544;9.232;2022-10-13T14:50:12;26.70;99.90
40660;DHT22;26753;45.544;9.232;2022-10-13T14:52:38;29.70;99.90
40660;DHT22;26753;45.544;9.232;2022-10-13T14:55:04;30.50;98.20
40660;DHT22;26753;45.544;9.232;2022-10-13T14:57:30;29.60;97.90
40660;DHT22;26753;45.544;9.232;2022-10-13T14:59:56;28.60;98.40
40660;DHT22;26753;45.544;9.232;2022-10-13T15:02:22;27.70;99.00
40660;DHT22;26753;45.544;9.232;2022-10-13T15:04:48;26.90;99.90
40660;DHT22;26753;45.544;9.232;2022-10-13T15:07:13;26.50;99.90
40660;DHT22;26753;45.544;9.232;2022-10-13T15:09:39;26.10;99.90
40660;DHT22;26753;45.544;9.232;2022-10-13T15:12:05;25.80;99.90
40660;DHT22;26753;45.544;9.232;2022-10-13T15:14:31;25.40;99.90
40660;DHT22;26753;45.544;9.232;2022-10-13T15:16:57;25.10;99.90
40660;DHT22;26753;45.544;9.232;2022-10-13T15:19:22;24.90;99.90
40660;DHT22;26753;45.544;9.232;2022-10-13T15:21:48;24.90;99.90
40660;DHT22;26753;45.544;9.232;2022-10-13T15:24:14;24.80;99.90
40660;DHT22;26753;45.544;9.232;2022-10-13T15:26:40;24.70;99.90
40660;DHT22;26753;45.544;9.232;2022-10-13T15:29:06;24.60;99.90
40660;DHT22;26753;45.544;9.232;2022-10-13T15:31:32;24.60;99.90
40660;DHT22;26753;45.544;9.232;2022-10-13T15:33:57;24.60;99.90
40660;DHT22;26753;45.544;9.232;2022-10-13T15:36:24;24.90;99.90
40660;DHT22;26753;45.544;9.232;2022-10-13T15:38:53;25.00;99.90
40660;DHT22;26753;45.544;9.232;2022-10-13T15:41:18;24.60;99.90
40660;DHT22;26753;45.544;9.232;2022-10-13T15:43:47;25.00;99.90
40660;DHT22;26753;45.544;9.232;2022-10-13T15:46:14;25.10;99.90
40660;DHT22;26753;45.544;9.232;2022-10-13T15:48:51;25.00;99.90
40660;DHT22;26753;45.544;9.232;2022-10-13T15:51:19;24.70;99.90
40660;DHT22;26753;45.544;9.232;2022-10-13T15:53:46;24.60;99.90
40660;DHT22;26753;45.544;9.232;2022-10-13T15:56:12;24.40;99.90
40660;DHT22;26753;45.544;9.232;2022-10-13T15:58:38;24.10;99.90
40660;DHT22;26753;45.544;9.232;2022-10-13T16:01:11;23.80;99.90
40660;DHT22;26753;45.544;9.232;2022-10-13T16:03:37;23.50;99.90
40660;DHT22;26753;45.544;9.232;2022-10-13T16:06:05;23.30;99.90
40660;DHT22;26753;45.544;9.232;2022-10-13T16:08:34;23.20;99.90
40660;DHT22;26753;45.544;9.232;2022-10-13T16:11:11;23.00;99.90
40660;DHT22;26753;45.544;9.232;2022-10-13T16:13:38;23.00;99.90
40660;DHT22;26753;45.544;9.232;2022-10-13T16:16:04;22.80;99.90
40660;DHT22;26753;45.544;9.232;2022-10-13T16:18:32;22.70;99.90
40660;DHT22;26753;45.544;9.232;2022-10-13T16:20:58;22.60;99.90
40660;DHT22;26753;45.544;9.232;2022-10-13T16:23:24;22.50;99.90
40660;DHT22;26753;45.544;9.232;2022-10-13T16:25:50;22.40;99.90
40660;DHT22;26753;45.544;9.232;2022-10-13T16:28:15;22.40;99.90
40660;DHT22;26753;45.544;9.232;2022-10-13T16:30:41;22.30;99.90
40660;DHT22;26753;45.544;9.232;2022-10-13T16:33:07;22.30;99.90
40660;DHT22;26753;45.544;9.232;2022-10-13T16:35:33;22.30;99.90
40660;DHT22;26753;45.544;9.232;2022-10-13T16:37:59;22.30;99.90
40660;DHT22;26753;45.544;9.232;2022-10-13T16:40:25;22.20;99.90
40660;DHT22;26753;45.544;9.232;2022-10-13T16:42:51;22.20;99.90
40660;DHT22;26753;45.544;9.232;2022-10-13T16:45:17;22.10;99.90
40660;DHT22;26753;45.544;9.232;2022-10-13T16:47:43;22.10;99.90
40660;DHT22;26753;45.544;9.232;2022-10-13T16:50:09;22.10;99.90
40660;DHT22;26753;45.544;9.232;2022-10-13T16:52:35;22.00;99.90
40660;DHT22;26753;45.544;9.232;2022-10-13T16:55:02;22.00;99.90
40660;DHT22;26753;45.544;9.232;2022-10-13T16:57:28;21.90;99.90
40660;DHT22;26753;45.544;9.232;2022-10-13T16:59:54;21.90;99.90
40660;DHT22;26753;45.544;9.232;2022-10-13T17:02:20;21.80;99.90
40660;DHT22;26753;45.544;9.232;2022-10-13T17:04:46;21.70;99.90
40660;DHT22;26753;45.544;9.232;2022-10-13T17:07:11;21.80;99.90
40660;DHT22;26753;45.544;9.232;2022-10-13T17:09:37;21.70;99.90
40660;DHT22;26753;45.544;9.232;2022-10-13T17:12:03;21.70;99.90
40660;DHT22;26753;45.544;9.232;2022-10-13T17:14:29;21.60;99.90
40660;DHT22;26753;45.544;9.232;2022-10-13T17:16:55;21.60;99.90
40660;DHT22;26753;45.544;9.232;2022-10-13T17:19:21;21.50;99.90
40660;DHT22;26753;45.544;9.232;2022-10-13T17:21:47;21.40;99.90
40660;DHT22;26753;45.544;9.232;2022-10-13T17:24:12;21.40;99.90
40660;DHT22;26753;45.544;9.232;2022-10-13T17:26:40;21.40;99.90
40660;DHT22;26753;45.544;9.232;2022-10-13T17:29:06;21.30;99.90
40660;DHT22;26753;45.544;9.232;2022-10-13T17:31:31;21.20;99.90
40660;DHT22;26753;45.544;9.232;2022-10-13T17:33:58;21.30;99.90
40660;DHT22;26753;45.544;9.232;2022-10-13T17:36:25;21.20;99.90
40660;DHT22;26753;45.544;9.232;2022-10-13T17:38:53;21.20;99.90
40660;DHT22;26753;45.544;9.232;2022-10-13T17:41:20;21.20;99.90
40660;DHT22;26753;45.544;9.232;2022-10-13T17:43:48;21.10;99.90
40660;DHT22;26753;45.544;9.232;2022-10-13T17:48:44;21.10;99.90
40660;DHT22;26753;45.544;9.232;2022-10-13T17:51:18;21.10;99.90
40660;DHT22;26753;45.544;9.232;2022-10-13T17:53:47;21.10;99.90
40660;DHT22;26753;45.544;9.232;2022-10-13T17:56:15;21.10;99.90
40660;DHT22;26753;45.544;9.232;2022-10-13T17:58:42;21.10;99.90
40660;DHT22;26753;45.544;9.232;2022-10-13T18:01:13;21.10;99.90
40660;DHT22;26753;45.544;9.232;2022-10-13T18:03:45;21.10;99.90
40660;DHT22;26753;45.544;9.232;2022-10-13T18:06:11;21.00;99.90